Time;durP1;ratioP1;P1;durP2;ratioP2;P2;SDS_P1;SDS_P2;PMS_P1;PMS_P2;Temp;Humidity;BMP_temperature;BMP_pressure;BME280_temperature;BME280_humidity;BME280_pressure;Samples;Min_cycle;Max_cycle;Signal;HPM_P1;HPM_P2
2022/01/18 00:00:09;;;;;;;11.90;3.38;;;11.60;58.60;;;;;;20572248;28;20066;-74
2022/01/18 00:10:10;;;;;;;9.43;2.15;;;11.60;58.60;;;;;;20541346;28;20097;-73
2022/01/18 00:20:17;;;;;;;9.13;2.17;;;11.60;58.60;;;;;;20570659;28;20043;-74
2022/01/18 00:40:41;;;;;;;7.20;2.10;;;11.60;58.60;;;;;;20553797;28;20182;-73
2022/01/18 00:50:42;;;;;;;4.93;1.63;;;11.60;58.70;;;;;;20569065;28;20502;-73
2022/01/18 01:00:42;;;;;;;10.98;2.47;;;11.60;58.70;;;;;;20568193;28;20460;-73
2022/01/18 01:10:43;;;;;;;8.38;1.73;;;11.50;58.70;;;;;;20535725;28;20551;-74
2022/01/18 01:51:44;;;;;;;5.75;1.48;;;11.50;58.90;;;;;;20567626;28;20454;-75
2022/01/18 02:01:46;;;;;;;5.18;1.80;;;11.50;58.90;;;;;;20548546;28;20465;-73
2022/01/18 02:11:47;;;;;;;7.97;2.10;;;11.40;58.90;;;;;;20549053;28;20667;-73
2022/01/18 02:21:48;;;;;;;7.85;1.85;;;11.40;59.00;;;;;;20532013;28;20240;-73
2022/01/18 02:31:49;;;;;;;3.88;1.73;;;11.40;59.10;;;;;;20547788;28;20043;-73
2022/01/18 02:42:04;;;;;;;4.38;1.88;;;11.50;59.20;;;;;;20550154;28;20478;-75
2022/01/18 02:52:05;;;;;;;10.18;2.10;;;11.50;59.30;;;;;;20563651;28;20046;-74
2022/01/18 03:12:41;;;;;;;6.50;1.70;;;11.50;59.50;;;;;;20592812;28;20034;-73
2022/01/18 03:22:42;;;;;;;5.60;1.67;;;11.40;59.60;;;;;;20575688;28;20041;-74
2022/01/18 03:32:42;;;;;;;10.90;2.10;;;11.40;59.60;;;;;;20591088;28;20290;-74
2022/01/18 03:42:45;;;;;;;8.55;1.48;;;11.40;59.80;;;;;;20574487;28;20051;-73
2022/01/18 03:52:46;;;;;;;4.93;1.65;;;11.40;59.80;;;;;;20557276;28;20046;-73
2022/01/18 04:02:47;;;;;;;7.47;1.13;;;11.40;59.80;;;;;;20556914;28;20034;-74
2022/01/18 04:12:47;;;;;;;7.55;1.17;;;11.50;60.00;;;;;;20540035;28;20369;-73
2022/01/18 04:33:07;;;;;;;6.45;1.55;;;11.40;60.00;;;;;;20573135;28;20097;-75
2022/01/18 04:43:20;;;;;;;6.75;1.30;;;11.40;60.10;;;;;;20569631;28;20489;-73
2022/01/18 04:53:21;;;;;;;3.38;1.40;;;11.40;60.20;;;;;;20584712;28;20441;-74
2022/01/18 05:03:22;;;;;;;3.92;1.25;;;11.40;60.30;;;;;;20567989;28;20043;-73
2022/01/18 05:23:42;;;;;;;6.80;1.35;;;12.00;59.20;;;;;;20569012;28;21044;-73
2022/01/18 05:33:42;;;;;;;4.25;0.80;;;13.00;57.00;;;;;;20566273;28;20113;-74
2022/01/18 05:43:43;;;;;;;3.05;0.77;;;13.80;54.90;;;;;;20552455;28;20054;-75
2022/01/18 05:53:43;;;;;;;1.63;0.63;;;14.50;53.00;;;;;;20566917;28;20038;-78
2022/01/18 06:04:13;;;;;;;2.78;0.90;;;14.90;51.90;;;;;;20685308;28;20126;-76
2022/01/18 06:14:11;;;;;;;3.90;0.98;;;15.00;51.40;;;;;;20648806;28;20038;-79
2022/01/18 06:24:12;;;;;;;2.88;0.68;;;15.00;51.30;;;;;;20648164;28;20096;-79
2022/01/18 06:34:14;;;;;;;2.77;0.93;;;14.60;51.60;;;;;;20681383;28;20472;-81
2022/01/18 06:44:16;;;;;;;5.07;0.80;;;13.90;53.00;;;;;;20658493;28;20301;-79
2022/01/18 06:54:17;;;;;;;2.10;0.80;;;13.20;54.40;;;;;;20658515;28;20057;-79
2022/01/18 07:04:18;;;;;;;3.15;0.68;;;12.80;55.70;;;;;;20624737;28;20504;-78
2022/01/18 07:14:19;;;;;;;1.95;0.40;;;12.30;56.80;;;;;;20625371;28;20031;-79
2022/01/18 07:24:36;;;;;;;1.08;0.60;;;12.10;57.80;;;;;;20625142;28;20065;-80
2022/01/18 07:34:46;;;;;;;1.75;0.82;;;11.80;58.40;;;;;;20619414;28;20026;-82
2022/01/18 07:44:47;;;;;;;5.95;0.80;;;11.70;59.00;;;;;;20616811;28;20046;-80
2022/01/18 07:54:49;;;;;;;3.85;0.65;;;11.70;59.40;;;;;;20613288;28;20046;-80
2022/01/18 08:04:49;;;;;;;1.35;0.47;;;11.70;59.60;;;;;;20602547;28;20381;-80
2022/01/18 08:14:54;;;;;;;2.63;0.50;;;11.60;59.70;;;;;;20652572;28;20041;-80
2022/01/18 08:24:56;;;;;;;3.38;1.73;;;11.70;59.90;;;;;;20630248;28;20298;-80
2022/01/18 08:34:59;;;;;;;2.38;0.55;;;11.60;59.90;;;;;;20651970;28;20093;-75
2022/01/18 08:44:59;;;;;;;2.60;0.55;;;11.60;60.10;;;;;;20601101;28;20723;-81
2022/01/18 08:55:01;;;;;;;1.90;0.85;;;11.60;60.30;;;;;;20651020;28;20485;-82
2022/01/18 09:05:03;;;;;;;0.90;0.30;;;11.60;60.50;;;;;;20650043;28;20120;-81
2022/01/18 09:15:06;;;;;;;1.15;0.65;;;11.60;60.60;;;;;;20680266;28;20045;-80
2022/01/18 09:25:10;;;;;;;5.93;0.63;;;11.50;60.80;;;;;;20722633;28;20038;-82
2022/01/18 09:35:11;;;;;;;2.28;0.70;;;11.50;61.00;;;;;;20657358;28;20034;-83
2022/01/18 09:45:14;;;;;;;1.67;0.55;;;11.50;61.10;;;;;;20664250;28;20070;-83
2022/01/18 09:55:16;;;;;;;0.82;0.65;;;11.50;61.20;;;;;;20631120;28;20193;-83
2022/01/18 10:05:22;;;;;;;2.35;1.00;;;11.50;61.30;;;;;;20589926;28;20142;-80
2022/01/18 10:15:22;;;;;;;1.08;0.57;;;11.50;61.50;;;;;;20661347;28;20066;-80
2022/01/18 10:25:26;;;;;;;2.80;0.70;;;11.50;61.60;;;;;;20662005;28;20081;-82
2022/01/18 10:35:28;;;;;;;0.90;0.70;;;11.50;61.70;;;;;;20580887;28;20079;-81
2022/01/18 10:45:32;;;;;;;1.98;0.70;;;11.50;61.80;;;;;;20615133;28;20046;-83
2022/01/18 10:55:34;;;;;;;1.92;0.77;;;11.50;61.80;;;;;;20664055;28;20118;-83
2022/01/18 11:05:36;;;;;;;2.25;0.88;;;11.40;62.00;;;;;;20650420;28;20452;-78
2022/01/18 11:15:42;;;;;;;1.33;0.80;;;11.50;62.10;;;;;;20659785;28;20121;-83
2022/01/18 11:25:43;;;;;;;2.67;1.27;;;12.40;60.40;;;;;;20659670;28;20397;-81
2022/01/18 11:35:58;;;;;;;0.90;0.50;;;13.20;58.30;;;;;;20658300;28;20488;-78
2022/01/18 11:45:58;;;;;;;1.55;0.50;;;13.90;56.40;;;;;;21040299;23;20051;-76
2022/01/18 11:56:02;;;;;;;2.78;0.70;;;14.50;54.80;;;;;;20599085;28;20042;-74
2022/01/18 12:06:03;;;;;;;1.38;0.60;;;14.90;53.80;;;;;;20577165;28;20045;-79
2022/01/18 12:16:15;;;;;;;1.40;0.52;;;14.90;53.30;;;;;;20560864;28;20154;-79
2022/01/18 12:26:41;;;;;;;3.45;0.70;;;14.90;53.20;;;;;;20708258;28;20034;-76
2022/01/18 12:36:41;;;;;;;2.15;0.98;;;14.30;54.10;;;;;;20696665;28;20081;-77
2022/01/18 12:46:50;;;;;;;1.48;0.70;;;13.60;55.50;;;;;;20653700;28;20129;-81
2022/01/18 12:56:52;;;;;;;4.20;0.90;;;13.10;56.80;;;;;;20640125;28;20042;-85
2022/01/18 13:06:55;;;;;;;6.72;2.13;;;12.60;58.00;;;;;;20751084;28;20045;-81
2022/01/18 13:27:28;;;;;;;1.77;1.00;;;12.10;59.80;;;;;;20663381;28;20494;-88
2022/01/18 13:37:31;;;;;;;2.85;0.70;;;11.90;60.50;;;;;;20719867;28;20125;-86
2022/01/18 13:47:50;;;;;;;6.57;1.38;;;11.90;60.90;;;;;;20665302;28;20145;-85
2022/01/18 13:57:57;;;;;;;4.45;1.65;;;11.80;61.10;;;;;;20634853;28;20038;-84
2022/01/18 14:08:01;;;;;;;;;;;11.90;61.40;;;;;;20634350;28;20042;-86
2022/01/18 14:18:03;;;;;;;3.22;0.75;;;11.90;61.30;;;;;;20618230;28;19921;-81
2022/01/18 14:28:08;;;;;;;3.88;0.75;;;11.90;61.20;;;;;;20629936;28;20066;-82
2022/01/18 14:38:21;;;;;;;4.63;0.93;;;11.90;61.90;;;;;;20635463;28;20508;-77
2022/01/18 14:48:23;;;;;;;2.35;0.77;;;11.90;61.40;;;;;;20649873;28;20477;-79
2022/01/18 14:58:24;;;;;;;6.55;0.93;;;11.80;61.50;;;;;;20651925;28;20046;-81
2022/01/18 15:08:24;;;;;;;2.05;0.70;;;11.80;61.60;;;;;;20661846;28;20045;-82
2022/01/18 15:18:27;;;;;;;3.90;1.08;;;11.80;62.40;;;;;;20646389;28;20044;-84
2022/01/18 15:28:28;;;;;;;4.60;1.25;;;11.80;61.90;;;;;;20645659;28;20464;-83
2022/01/18 15:38:29;;;;;;;3.83;1.52;;;11.70;62.00;;;;;;20644854;28;20034;-82
2022/01/18 15:48:29;;;;;;;3.53;1.10;;;11.90;61.80;;;;;;20641206;28;20085;-78
2022/01/18 15:58:30;;;;;;;2.53;1.15;;;12.70;60.00;;;;;;20666198;28;20115;-81
2022/01/18 16:08:31;;;;;;;2.65;1.17;;;13.60;58.10;;;;;;20659251;28;20034;-81
2022/01/18 16:18:34;;;;;;;5.82;1.15;;;14.20;56.10;;;;;;20652602;28;20042;-81
2022/01/18 16:28:34;;;;;;;2.90;1.00;;;14.60;54.70;;;;;;20646583;28;20109;-80
2022/01/18 16:38:35;;;;;;;2.03;1.03;;;14.80;54.00;;;;;;20632534;28;20042;-79
2022/01/18 16:48:35;;;;;;;1.92;0.90;;;14.70;53.90;;;;;;20647832;28;20305;-76
2022/01/18 16:58:39;;;;;;;3.38;1.02;;;14.10;55.00;;;;;;20649033;28;20042;-79
2022/01/18 17:08:40;;;;;;;3.95;1.75;;;13.50;56.20;;;;;;20651579;28;20046;-85
2022/01/18 17:18:40;;;;;;;3.80;1.37;;;12.90;57.50;;;;;;20666973;28;20068;-81
2022/01/18 17:28:41;;;;;;;2.40;1.30;;;12.50;58.60;;;;;;20635264;28;20625;-81
2022/01/18 17:38:43;;;;;;;6.32;1.40;;;12.20;59.50;;;;;;20635682;28;20034;-78
2022/01/18 17:48:44;;;;;;;3.67;1.45;;;12.00;60.20;;;;;;20649658;28;20048;-80
2022/01/18 17:58:44;;;;;;;2.83;0.98;;;11.90;60.80;;;;;;20648757;28;20069;-79
2022/01/18 18:08:45;;;;;;;6.30;1.33;;;11.80;61.10;;;;;;20645082;28;20113;-78
2022/01/18 18:18:49;;;;;;;3.25;1.63;;;11.80;61.30;;;;;;20625348;28;20361;-76
2022/01/18 18:28:49;;;;;;;4.68;1.05;;;11.80;62.00;;;;;;20629478;28;20401;-76
2022/01/18 18:38:54;;;;;;;4.88;1.48;;;11.80;61.40;;;;;;20645499;28;20034;-76
2022/01/18 18:48:55;;;;;;;2.65;1.10;;;11.80;61.40;;;;;;20661558;28;20105;-77
2022/01/18 19:09:09;;;;;;;2.45;1.02;;;11.80;61.40;;;;;;20644603;28;20054;-75
2022/01/18 19:19:10;;;;;;;4.07;1.90;;;11.80;61.40;;;;;;20658088;28;20042;-77
2022/01/18 19:29:11;;;;;;;4.03;1.20;;;11.90;61.40;;;;;;20586851;28;20536;-76
2022/01/18 19:39:12;;;;;;;2.67;1.42;;;11.80;61.40;;;;;;20577465;28;20302;-78
2022/01/18 19:49:13;;;;;;;3.13;0.95;;;11.80;61.40;;;;;;20579728;28;20077;-77
2022/01/18 19:59:13;;;;;;;3.65;0.98;;;11.80;61.50;;;;;;20594597;28;20046;-78
2022/01/18 20:09:14;;;;;;;1.95;1.08;;;11.80;61.50;;;;;;20577901;28;20105;-77
2022/01/18 20:19:32;;;;;;;2.53;1.23;;;11.80;61.50;;;;;;20577132;28;20042;-78
2022/01/18 20:29:33;;;;;;;4.07;1.15;;;11.80;61.60;;;;;;20592303;28;20042;-78
2022/01/18 20:39:34;;;;;;;3.22;1.10;;;11.80;61.60;;;;;;20575081;28;20378;-78
2022/01/18 20:49:35;;;;;;;2.70;0.90;;;11.80;61.70;;;;;;20663623;28;20034;-78
2022/01/18 20:59:36;;;;;;;2.20;1.02;;;11.80;61.70;;;;;;20638032;28;20041;-79
2022/01/18 21:09:37;;;;;;;4.70;1.45;;;11.80;61.70;;;;;;20636136;28;20031;-79
2022/01/18 21:19:37;;;;;;;6.13;1.30;;;11.80;61.80;;;;;;20652889;28;20496;-79
2022/01/18 21:29:40;;;;;;;5.03;1.27;;;11.70;61.70;;;;;;20619996;28;20034;-78
2022/01/18 21:39:40;;;;;;;1.73;0.90;;;11.70;61.70;;;;;;20651455;28;20321;-78
2022/01/18 21:49:41;;;;;;;3.83;1.63;;;11.70;62.50;;;;;;20650090;28;20061;-78
2022/01/18 21:59:43;;;;;;;4.03;1.20;;;11.70;61.80;;;;;;20649171;28;20440;-77
2022/01/18 22:09:43;;;;;;;3.92;1.52;;;11.70;61.90;;;;;;20634293;28;20045;-78
2022/01/18 22:19:44;;;;;;;3.28;1.30;;;11.70;61.90;;;;;;20649802;28;20039;-78
2022/01/18 22:29:44;;;;;;;2.03;1.38;;;11.60;61.90;;;;;;20648263;28;20488;-78
2022/01/18 22:39:46;;;;;;;4.78;1.85;;;11.60;62.00;;;;;;20648992;28;20034;-78
2022/01/18 22:49:47;;;;;;;4.72;1.65;;;11.70;62.00;;;;;;20633507;28;20106;-78
2022/01/18 22:59:47;;;;;;;5.30;1.95;;;11.70;62.10;;;;;;20621605;28;20042;-78
2022/01/18 23:09:48;;;;;;;2.92;1.50;;;11.70;62.10;;;;;;20645783;28;20388;-80
2022/01/18 23:19:48;;;;;;;3.00;1.45;;;11.60;62.70;;;;;;20662138;28;20092;-78
2022/01/18 23:29:49;;;;;;;6.20;1.83;;;11.60;62.10;;;;;;20644318;28;20070;-78
2022/01/18 23:39:59;;;;;;;3.85;2.15;;;11.60;62.20;;;;;;20660603;28;20366;-78
2022/01/18 23:49:59;;;;;;;3.25;1.23;;;11.60;62.20;;;;;;20629627;28;20038;-78
